Time;durP1;ratioP1;P1;durP2;ratioP2;P2;SDS_P1;SDS_P2;PMS_P1;PMS_P2;Temp;Humidity;BMP_temperature;BMP_pressure;BME280_temperature;BME280_humidity;BME280_pressure;Samples;Min_cycle;Max_cycle;Signal;HPM_P1;HPM_P2
2023/07/05 00:00:09;;;;;;;15.63;8.75;;;;;;;;;;4890265;28;98436;-80
2023/07/05 00:02:36;;;;;;;22.40;9.70;;;;;;;;;;4888399;28;99131;-81
2023/07/05 00:05:03;;;;;;;20.25;9.52;;;;;;;;;;4901575;28;98330;-80
2023/07/05 00:07:29;;;;;;;20.08;9.43;;;;;;;;;;4904634;28;98587;-81
2023/07/05 00:09:56;;;;;;;19.17;8.88;;;;;;;;;;4894862;28;98876;-80
2023/07/05 00:12:23;;;;;;;17.50;9.50;;;;;;;;;;4881672;28;99582;-80
2023/07/05 00:14:49;;;;;;;32.88;9.68;;;;;;;;;;4899771;28;97952;-80
2023/07/05 00:17:16;;;;;;;30.33;10.15;;;;;;;;;;4888625;28;97739;-83
2023/07/05 00:19:43;;;;;;;18.52;8.77;;;;;;;;;;4899343;28;97786;-82
2023/07/05 00:22:09;;;;;;;25.55;9.70;;;;;;;;;;4888759;28;98299;-82
2023/07/05 00:24:36;;;;;;;17.20;9.48;;;;;;;;;;4901566;28;99083;-82
2023/07/05 00:27:03;;;;;;;16.45;9.75;;;;;;;;;;4918718;28;99203;-82
2023/07/05 00:29:30;;;;;;;17.60;9.15;;;;;;;;;;4901396;28;100025;-82
2023/07/05 00:31:57;;;;;;;19.02;9.73;;;;;;;;;;4894823;28;98427;-82
2023/07/05 00:34:24;;;;;;;16.60;10.05;;;;;;;;;;4900435;28;98635;-82
2023/07/05 00:36:50;;;;;;;33.88;9.70;;;;;;;;;;4899069;28;100626;-82
2023/07/05 00:39:17;;;;;;;18.77;8.65;;;;;;;;;;4896652;28;98402;-82
2023/07/05 00:41:43;;;;;;;16.15;8.27;;;;;;;;;;4903785;28;98492;-81
2023/07/05 00:44:14;;;;;;;11.38;8.35;;;;;;;;;;4904910;28;98904;-82
2023/07/05 00:46:44;;;;;;;15.70;7.93;;;;;;;;;;4890807;28;98451;-82
2023/07/05 00:49:15;;;;;;;18.63;7.78;;;;;;;;;;4878731;28;99835;-82
2023/07/05 00:51:56;;;;;;;22.30;9.27;;;;;;;;;;4917025;28;99836;-82
2023/07/05 00:54:26;;;;;;;13.27;7.10;;;;;;;;;;4903079;28;98230;-83
2023/07/05 00:56:59;;;;;;;16.67;7.22;;;;;;;;;;4889073;28;98583;-82
2023/07/05 00:59:27;;;;;;;13.07;8.48;;;;;;;;;;4897244;28;100616;-83
2023/07/05 01:01:54;;;;;;;14.00;8.13;;;;;;;;;;4898643;28;98488;-82
2023/07/05 01:04:31;;;;;;;14.93;8.00;;;;;;;;;;4900897;28;98580;-82
2023/07/05 01:06:58;;;;;;;10.75;7.07;;;;;;;;;;4916729;28;99980;-82
2023/07/05 01:09:26;;;;;;;14.52;7.47;;;;;;;;;;4907637;28;97738;-83
2023/07/05 01:11:58;;;;;;;11.45;8.55;;;;;;;;;;4898078;28;100075;-83
2023/07/05 01:14:54;;;;;;;12.30;6.78;;;;;;;;;;4887927;28;99329;-82
2023/07/05 01:17:31;;;;;;;12.82;8.00;;;;;;;;;;4842449;28;101259;-82
2023/07/05 01:20:17;;;;;;;17.20;8.68;;;;;;;;;;4891746;28;100799;-82
2023/07/05 01:23:03;;;;;;;20.02;9.00;;;;;;;;;;4887366;28;99528;-82
2023/07/05 01:25:55;;;;;;;21.95;9.15;;;;;;;;;;4888077;28;99686;-83
2023/07/05 01:28:28;;;;;;;15.43;7.75;;;;;;;;;;4897207;28;99773;-83
2023/07/05 01:30:55;;;;;;;11.80;7.68;;;;;;;;;;4912282;28;98500;-83
2023/07/05 01:33:27;;;;;;;12.13;7.53;;;;;;;;;;4919464;28;98472;-83
2023/07/05 01:35:54;;;;;;;11.55;6.72;;;;;;;;;;4910829;28;97680;-83
2023/07/05 01:38:22;;;;;;;12.98;6.95;;;;;;;;;;4884656;28;98386;-84
2023/07/05 01:40:54;;;;;;;14.57;6.00;;;;;;;;;;4891967;28;101268;-83
2023/07/05 01:43:23;;;;;;;10.15;5.70;;;;;;;;;;4899092;28;99604;-83
2023/07/05 01:45:56;;;;;;;14.77;6.95;;;;;;;;;;4895113;28;100818;-83
2023/07/05 01:48:26;;;;;;;7.70;5.70;;;;;;;;;;4893982;28;98554;-82
2023/07/05 01:51:01;;;;;;;14.93;6.30;;;;;;;;;;4910017;28;98525;-83
2023/07/05 01:53:41;;;;;;;11.70;5.07;;;;;;;;;;4886133;28;100350;-83
2023/07/05 01:56:14;;;;;;;11.52;4.55;;;;;;;;;;4905244;28;98649;-84
2023/07/05 01:58:43;;;;;;;8.23;5.03;;;;;;;;;;4912895;28;100350;-83
2023/07/05 02:01:12;;;;;;;11.13;4.32;;;;;;;;;;4889004;28;100006;-83
2023/07/05 02:03:41;;;;;;;12.40;4.78;;;;;;;;;;4896447;28;98510;-83
2023/07/05 02:06:09;;;;;;;8.43;4.13;;;;;;;;;;4906919;28;100116;-82
2023/07/05 02:08:39;;;;;;;6.35;4.20;;;;;;;;;;4899288;28;102066;-82
2023/07/05 02:11:06;;;;;;;7.20;5.10;;;;;;;;;;4871027;28;99408;-82
2023/07/05 02:13:33;;;;;;;8.45;3.67;;;;;;;;;;4898249;28;98139;-82
2023/07/05 02:16:00;;;;;;;4.32;3.80;;;;;;;;;;4890464;28;98647;-82
2023/07/05 02:18:29;;;;;;;4.97;3.60;;;;;;;;;;4891864;28;98394;-83
2023/07/05 02:20:56;;;;;;;7.38;4.00;;;;;;;;;;4885011;28;97992;-82
2023/07/05 02:23:23;;;;;;;7.78;3.22;;;;;;;;;;4893702;28;98324;-82
2023/07/05 02:25:50;;;;;;;4.43;3.53;;;;;;;;;;4887084;28;100737;-83
2023/07/05 02:28:17;;;;;;;7.72;3.13;;;;;;;;;;4913346;28;98504;-82
2023/07/05 02:30:44;;;;;;;8.93;3.40;;;;;;;;;;4898493;28;98630;-83
2023/07/05 02:33:12;;;;;;;5.07;3.03;;;;;;;;;;4896415;28;99293;-82
2023/07/05 02:35:39;;;;;;;7.15;2.50;;;;;;;;;;4917752;28;100089;-81
2023/07/05 02:38:06;;;;;;;9.00;2.42;;;;;;;;;;4904638;28;98616;-82
2023/07/05 02:40:33;;;;;;;5.55;2.78;;;;;;;;;;4910940;28;98244;-82
2023/07/05 02:43:00;;;;;;;6.72;2.45;;;;;;;;;;4890885;28;98512;-82
2023/07/05 02:45:27;;;;;;;6.90;1.85;;;;;;;;;;4906577;28;100877;-82
2023/07/05 02:47:53;;;;;;;3.75;2.15;;;;;;;;;;4904961;28;100281;-83
2023/07/05 02:50:22;;;;;;;8.05;2.22;;;;;;;;;;4923015;28;96940;-83
2023/07/05 02:52:49;;;;;;;5.78;2.40;;;;;;;;;;4905629;28;98609;-82
2023/07/05 02:55:15;;;;;;;4.10;2.30;;;;;;;;;;4919126;28;98332;-83
2023/07/05 02:57:42;;;;;;;4.65;2.85;;;;;;;;;;4906221;28;99212;-83
2023/07/05 03:00:09;;;;;;;5.53;2.75;;;;;;;;;;4894717;28;98773;-82
2023/07/05 03:02:37;;;;;;;5.82;3.33;;;;;;;;;;4904824;28;100905;-81
2023/07/05 03:05:08;;;;;;;9.13;3.13;;;;;;;;;;4901628;28;98445;-82
2023/07/05 03:07:35;;;;;;;9.05;3.40;;;;;;;;;;4901456;28;98203;-82
2023/07/05 03:10:02;;;;;;;11.65;4.05;;;;;;;;;;4909882;28;98449;-82
2023/07/05 03:12:28;;;;;;;8.43;3.22;;;;;;;;;;4924196;28;98330;-82
2023/07/05 03:14:55;;;;;;;7.25;3.90;;;;;;;;;;4907885;28;98838;-81
2023/07/05 03:17:21;;;;;;;6.13;3.97;;;;;;;;;;4907925;28;97766;-81
2023/07/05 03:19:48;;;;;;;6.97;3.78;;;;;;;;;;4909679;28;98847;-81
2023/07/05 03:22:15;;;;;;;5.97;3.72;;;;;;;;;;4902152;28;98729;-81
2023/07/05 03:24:41;;;;;;;7.68;4.43;;;;;;;;;;4900906;28;98511;-80
2023/07/05 03:27:08;;;;;;;8.63;3.85;;;;;;;;;;4892503;28;98459;-81
2023/07/05 03:29:36;;;;;;;10.00;5.40;;;;;;;;;;4904710;28;98389;-81
2023/07/05 03:32:03;;;;;;;5.05;4.55;;;;;;;;;;4919873;28;100305;-81
2023/07/05 03:34:31;;;;;;;8.43;4.82;;;;;;;;;;4905642;28;98193;-82
2023/07/05 03:36:57;;;;;;;9.45;5.53;;;;;;;;;;4918091;28;98026;-82
2023/07/05 03:39:26;;;;;;;8.95;4.72;;;;;;;;;;4907786;28;97737;-81
2023/07/05 03:41:52;;;;;;;6.82;4.15;;;;;;;;;;4899196;28;100731;-81
2023/07/05 03:44:22;;;;;;;8.48;4.72;;;;;;;;;;4910721;28;98536;-81
2023/07/05 03:46:49;;;;;;;11.00;5.35;;;;;;;;;;4905474;28;98908;-81
2023/07/05 03:49:16;;;;;;;7.05;3.92;;;;;;;;;;4873089;28;98341;-81
2023/07/05 03:51:43;;;;;;;7.65;4.82;;;;;;;;;;4900731;28;98390;-82
2023/07/05 03:54:10;;;;;;;5.03;4.25;;;;;;;;;;4898725;28;98003;-81
2023/07/05 03:56:36;;;;;;;7.13;4.20;;;;;;;;;;4902530;28;98577;-82
2023/07/05 03:59:03;;;;;;;9.15;3.53;;;;;;;;;;4899764;28;98050;-81
2023/07/05 04:01:30;;;;;;;7.75;4.28;;;;;;;;;;4903003;28;100736;-81
2023/07/05 04:03:58;;;;;;;8.88;4.20;;;;;;;;;;4912290;28;97644;-82
2023/07/05 04:06:26;;;;;;;5.75;3.97;;;;;;;;;;4915878;28;98055;-82
2023/07/05 04:08:54;;;;;;;6.10;4.55;;;;;;;;;;4895332;28;98543;-82
2023/07/05 04:11:21;;;;;;;6.45;4.05;;;;;;;;;;4906335;28;99343;-82
2023/07/05 04:13:48;;;;;;;5.70;3.97;;;;;;;;;;4891530;28;99497;-82
2023/07/05 04:16:18;;;;;;;11.50;4.82;;;;;;;;;;4903318;28;98502;-81
2023/07/05 04:18:45;;;;;;;8.38;4.28;;;;;;;;;;4899630;28;99153;-81
2023/07/05 04:21:12;;;;;;;9.23;4.45;;;;;;;;;;4888685;28;99227;-81
2023/07/05 04:23:40;;;;;;;7.75;4.45;;;;;;;;;;4890964;28;98571;-81
2023/07/05 04:26:14;;;;;;;5.30;4.18;;;;;;;;;;4896832;28;99066;-81
2023/07/05 04:28:41;;;;;;;4.68;4.07;;;;;;;;;;4914849;28;97924;-82
2023/07/05 04:31:09;;;;;;;6.45;4.03;;;;;;;;;;4897593;28;98548;-80
2023/07/05 04:33:36;;;;;;;15.93;4.20;;;;;;;;;;4895228;28;101515;-81
2023/07/05 04:36:03;;;;;;;12.57;4.25;;;;;;;;;;4877117;28;99400;-80
2023/07/05 04:38:31;;;;;;;4.90;3.58;;;;;;;;;;4892371;28;101047;-81
2023/07/05 04:40:58;;;;;;;4.78;4.00;;;;;;;;;;4891551;28;100713;-81
2023/07/05 04:43:25;;;;;;;10.20;4.03;;;;;;;;;;4871250;28;100926;-80
2023/07/05 04:45:53;;;;;;;13.02;4.80;;;;;;;;;;4873355;28;99717;-80
2023/07/05 04:48:20;;;;;;;15.15;4.63;;;;;;;;;;4873210;28;98394;-80
2023/07/05 04:50:48;;;;;;;10.63;4.20;;;;;;;;;;4885407;28;98425;-80
2023/07/05 04:53:15;;;;;;;9.50;4.35;;;;;;;;;;4859441;28;98600;-80
2023/07/05 04:55:45;;;;;;;10.10;4.03;;;;;;;;;;4877633;28;98522;-81
2023/07/05 04:58:12;;;;;;;6.85;4.20;;;;;;;;;;4870181;28;98402;-81
2023/07/05 05:00:40;;;;;;;9.00;4.03;;;;;;;;;;4859363;28;101854;-81
2023/07/05 05:03:06;;;;;;;4.88;4.25;;;;;;;;;;4874588;28;98445;-80
2023/07/05 05:05:33;;;;;;;8.13;4.03;;;;;;;;;;4867805;28;101754;-81
2023/07/05 05:08:00;;;;;;;7.72;4.75;;;;;;;;;;4879736;28;102107;-80
2023/07/05 05:10:26;;;;;;;6.30;4.75;;;;;;;;;;4879416;28;98490;-82
2023/07/05 05:12:53;;;;;;;8.82;5.30;;;;;;;;;;4879479;28;97851;-80
2023/07/05 05:15:19;;;;;;;8.80;5.03;;;;;;;;;;4889702;28;98591;-80
2023/07/05 05:17:46;;;;;;;6.13;4.10;;;;;;;;;;4883465;28;97821;-80
2023/07/05 05:20:13;;;;;;;5.68;3.92;;;;;;;;;;4877169;28;97993;-80
2023/07/05 05:22:40;;;;;;;9.75;5.00;;;;;;;;;;4869190;28;98174;-79
2023/07/05 05:25:07;;;;;;;9.88;4.53;;;;;;;;;;4891342;28;99397;-80
2023/07/05 05:27:33;;;;;;;6.93;4.18;;;;;;;;;;4878283;28;100534;-79
2023/07/05 05:30:00;;;;;;;7.30;4.10;;;;;;;;;;4878405;28;98581;-81
2023/07/05 05:32:27;;;;;;;7.53;5.00;;;;;;;;;;4885351;28;98475;-80
2023/07/05 05:34:54;;;;;;;7.10;4.45;;;;;;;;;;4878330;28;98452;-81
2023/07/05 05:37:20;;;;;;;12.00;5.00;;;;;;;;;;4865876;28;99081;-81
2023/07/05 05:39:47;;;;;;;8.57;4.13;;;;;;;;;;4879501;28;98452;-81
2023/07/05 05:42:13;;;;;;;7.47;4.20;;;;;;;;;;4872162;28;97936;-82
2023/07/05 05:44:40;;;;;;;10.68;4.47;;;;;;;;;;4893187;28;98577;-84
2023/07/05 05:47:08;;;;;;;9.27;4.38;;;;;;;;;;4886339;28;98649;-82
2023/07/05 05:49:35;;;;;;;9.13;5.30;;;;;;;;;;4872769;28;99281;-81
2023/07/05 05:52:01;;;;;;;6.47;5.00;;;;;;;;;;4890598;28;101584;-81
2023/07/05 05:54:28;;;;;;;9.30;5.35;;;;;;;;;;4877733;28;99214;-81
2023/07/05 05:56:55;;;;;;;8.05;5.50;;;;;;;;;;4878265;28;98479;-81
2023/07/05 05:59:21;;;;;;;11.10;4.68;;;;;;;;;;4887941;28;101515;-82
2023/07/05 06:01:48;;;;;;;6.85;4.47;;;;;;;;;;4882661;28;98493;-83
2023/07/05 06:04:15;;;;;;;5.93;4.45;;;;;;;;;;4878401;28;98603;-84
2023/07/05 06:06:42;;;;;;;7.32;3.95;;;;;;;;;;4881386;28;99600;-85
2023/07/05 06:09:10;;;;;;;16.13;4.25;;;;;;;;;;4881282;28;99607;-83
2023/07/05 06:11:36;;;;;;;12.00;4.00;;;;;;;;;;4848064;28;98544;-83
2023/07/05 06:14:03;;;;;;;11.75;4.93;;;;;;;;;;4899286;28;102188;-83
2023/07/05 06:16:30;;;;;;;9.25;3.65;;;;;;;;;;4879898;28;98472;-82
2023/07/05 06:18:56;;;;;;;9.80;3.42;;;;;;;;;;4883052;28;98677;-83
2023/07/05 06:21:23;;;;;;;7.80;2.95;;;;;;;;;;4872188;28;98537;-81
2023/07/05 06:23:50;;;;;;;9.05;3.53;;;;;;;;;;4894076;28;97680;-83
2023/07/05 06:26:19;;;;;;;9.55;2.60;;;;;;;;;;4872461;28;100186;-82
2023/07/05 06:28:46;;;;;;;15.02;2.67;;;;;;;;;;4894011;28;98542;-83
2023/07/05 06:31:13;;;;;;;5.32;2.22;;;;;;;;;;4884173;28;100737;-84
2023/07/05 06:33:39;;;;;;;4.20;1.88;;;;;;;;;;4885791;28;98539;-83
2023/07/05 06:36:06;;;;;;;6.70;2.15;;;;;;;;;;4930449;28;98512;-83
2023/07/05 06:38:33;;;;;;;14.07;2.28;;;;;;;;;;4936793;28;99175;-82
2023/07/05 06:41:00;;;;;;;10.45;2.17;;;;;;;;;;4911945;28;98175;-82
2023/07/05 06:43:27;;;;;;;11.13;2.30;;;;;;;;;;4931679;28;98317;-82
2023/07/05 06:45:55;;;;;;;8.80;1.75;;;;;;;;;;4928348;28;98609;-82
2023/07/05 06:48:22;;;;;;;10.25;1.98;;;;;;;;;;4925587;28;98254;-80
2023/07/05 06:50:52;;;;;;;11.02;2.05;;;;;;;;;;4908145;28;98379;-80
2023/07/05 06:53:19;;;;;;;6.55;1.55;;;;;;;;;;4910822;28;100685;-81
2023/07/05 06:56:07;;;;;;;9.13;1.92;;;;;;;;;;4908862;28;98084;-80
2023/07/05 06:58:34;;;;;;;6.68;1.77;;;;;;;;;;4924823;28;98435;-82
2023/07/05 07:01:00;;;;;;;7.57;2.08;;;;;;;;;;4905895;28;100857;-82
2023/07/05 07:03:27;;;;;;;12.77;1.75;;;;;;;;;;4918480;28;98803;-81
2023/07/05 07:05:54;;;;;;;16.48;2.13;;;;;;;;;;4919619;28;99339;-80
2023/07/05 07:08:21;;;;;;;12.13;1.83;;;;;;;;;;4917859;28;98621;-80
2023/07/05 07:10:48;;;;;;;13.82;2.08;;;;;;;;;;4917913;28;98552;-79
2023/07/05 07:13:15;;;;;;;11.30;2.53;;;;;;;;;;4921299;28;101150;-82
2023/07/05 07:15:41;;;;;;;16.50;2.15;;;;;;;;;;4915804;28;99184;-82
2023/07/05 07:18:08;;;;;;;14.43;2.30;;;;;;;;;;4895261;28;99979;-83
2023/07/05 07:20:35;;;;;;;22.10;2.55;;;;;;;;;;4907643;28;97851;-80
2023/07/05 07:23:01;;;;;;;17.30;2.70;;;;;;;;;;4902372;28;98500;-82
2023/07/05 07:25:28;;;;;;;24.70;4.07;;;;;;;;;;4913781;28;99031;-82
2023/07/05 07:27:54;;;;;;;30.63;3.53;;;;;;;;;;4890520;28;99409;-81
2023/07/05 07:30:21;;;;;;;11.57;2.90;;;;;;;;;;4906146;28;98624;-81
2023/07/05 07:32:48;;;;;;;20.45;3.05;;;;;;;;;;4900485;28;98641;-82
2023/07/05 07:35:15;;;;;;;9.05;2.85;;;;;;;;;;4898073;28;98685;-83
2023/07/05 07:37:41;;;;;;;17.92;3.10;;;;;;;;;;4887509;28;99798;-82
2023/07/05 07:40:08;;;;;;;16.02;4.10;;;;;;;;;;4911647;28;101091;-84
2023/07/05 07:42:35;;;;;;;22.40;4.80;;;;;;;;;;4897867;28;98840;-83
2023/07/05 07:45:02;;;;;;;14.55;4.68;;;;;;;;;;4882264;28;97866;-82
2023/07/05 07:47:29;;;;;;;18.88;4.22;;;;;;;;;;4912584;28;98545;-82
2023/07/05 07:49:55;;;;;;;13.88;4.38;;;;;;;;;;4883253;28;101689;-82
2023/07/05 07:52:22;;;;;;;24.70;4.57;;;;;;;;;;4897981;28;101822;-83
2023/07/05 07:54:48;;;;;;;14.10;4.38;;;;;;;;;;4911821;28;98736;-83
2023/07/05 07:57:15;;;;;;;20.35;4.60;;;;;;;;;;4894311;28;98475;-81
2023/07/05 07:59:42;;;;;;;17.27;3.70;;;;;;;;;;4912762;28;99724;-82
2023/07/05 08:02:10;;;;;;;18.73;4.97;;;;;;;;;;4891701;28;98607;-80
2023/07/05 08:04:44;;;;;;;17.85;4.05;;;;;;;;;;4890370;28;100573;-80
2023/07/05 08:07:11;;;;;;;14.90;4.32;;;;;;;;;;4910406;28;99201;-80
2023/07/05 08:09:38;;;;;;;12.30;3.63;;;;;;;;;;4916993;28;98072;-80
2023/07/05 08:12:05;;;;;;;17.10;4.38;;;;;;;;;;4916966;28;98562;-80
2023/07/05 08:14:31;;;;;;;13.57;3.80;;;;;;;;;;4910158;28;98501;-80
2023/07/05 08:16:58;;;;;;;11.63;4.45;;;;;;;;;;4897344;28;99288;-80
2023/07/05 08:19:25;;;;;;;18.10;4.15;;;;;;;;;;4913793;28;98615;-82
2023/07/05 08:21:51;;;;;;;11.82;3.65;;;;;;;;;;4887319;28;98526;-80
2023/07/05 08:24:18;;;;;;;16.63;3.88;;;;;;;;;;4912238;28;98394;-82
2023/07/05 08:26:49;;;;;;;12.30;3.65;;;;;;;;;;4885186;28;101466;-82
2023/07/05 08:29:15;;;;;;;17.90;5.20;;;;;;;;;;4916032;28;98486;-80
2023/07/05 08:31:42;;;;;;;13.95;3.50;;;;;;;;;;4898560;28;98715;-81
2023/07/05 08:34:10;;;;;;;10.15;3.45;;;;;;;;;;4914431;28;97501;-81
2023/07/05 08:36:38;;;;;;;7.78;2.97;;;;;;;;;;4895091;28;100743;-80
2023/07/05 08:39:06;;;;;;;10.57;3.20;;;;;;;;;;4915310;28;99524;-81
2023/07/05 08:41:38;;;;;;;14.13;4.47;;;;;;;;;;4886407;28;99576;-81
2023/07/05 08:44:11;;;;;;;16.15;3.42;;;;;;;;;;4913577;28;101408;-79
2023/07/05 08:46:39;;;;;;;18.30;4.15;;;;;;;;;;4916479;28;98778;-81
2023/07/05 08:49:15;;;;;;;19.67;3.30;;;;;;;;;;4883943;28;98438;-81
2023/07/05 08:51:42;;;;;;;17.30;3.50;;;;;;;;;;4914386;28;98463;-81
2023/07/05 08:54:11;;;;;;;10.63;2.92;;;;;;;;;;4913627;28;98648;-80
2023/07/05 08:56:49;;;;;;;14.38;3.00;;;;;;;;;;4896039;28;99098;-82
2023/07/05 08:59:30;;;;;;;12.48;3.33;;;;;;;;;;4898061;28;97863;-81
2023/07/05 09:01:57;;;;;;;18.92;4.13;;;;;;;;;;4886701;28;98528;-81
2023/07/05 09:04:25;;;;;;;12.95;4.38;;;;;;;;;;4894478;28;99212;-82
2023/07/05 09:06:58;;;;;;;19.45;3.58;;;;;;;;;;4896830;28;100006;-82
2023/07/05 09:09:51;;;;;;;12.90;4.25;;;;;;;;;;4902211;28;98681;-83
2023/07/05 09:12:24;;;;;;;17.67;4.13;;;;;;;;;;4886212;28;98418;-81
2023/07/05 09:14:51;;;;;;;17.90;4.97;;;;;;;;;;4901006;28;98498;-81
2023/07/05 09:17:23;;;;;;;20.92;4.93;;;;;;;;;;4908515;28;98524;-81
2023/07/05 09:19:56;;;;;;;18.40;3.55;;;;;;;;;;4897176;28;99527;-81
2023/07/05 09:22:24;;;;;;;18.75;4.07;;;;;;;;;;4897783;28;98627;-80
2023/07/05 09:24:51;;;;;;;21.58;4.68;;;;;;;;;;4914417;28;97579;-80
2023/07/05 09:27:31;;;;;;;16.40;3.95;;;;;;;;;;4908263;28;98600;-83
2023/07/05 09:30:06;;;;;;;14.55;3.85;;;;;;;;;;4903831;28;98440;-82
2023/07/05 09:32:38;;;;;;;11.95;3.35;;;;;;;;;;4908877;28;99277;-84
2023/07/05 09:35:25;;;;;;;17.83;3.97;;;;;;;;;;4896953;28;99910;-83
2023/07/05 09:38:01;;;;;;;12.45;3.47;;;;;;;;;;4915608;28;98513;-82
2023/07/05 09:40:30;;;;;;;10.02;3.15;;;;;;;;;;4911627;28;99603;-84
2023/07/05 09:42:59;;;;;;;20.40;3.92;;;;;;;;;;4898635;28;98580;-83
2023/07/05 09:45:26;;;;;;;14.05;4.07;;;;;;;;;;4897044;28;98777;-84
2023/07/05 09:47:57;;;;;;;25.60;4.22;;;;;;;;;;4916479;28;99300;-81
2023/07/05 09:50:23;;;;;;;16.45;4.78;;;;;;;;;;4915130;28;97726;-84
2023/07/05 09:52:51;;;;;;;20.48;4.25;;;;;;;;;;4882925;28;99699;-83
2023/07/05 09:55:18;;;;;;;18.60;5.15;;;;;;;;;;4919172;28;98500;-83
2023/07/05 09:57:45;;;;;;;20.70;5.38;;;;;;;;;;4904549;28;99210;-84
2023/07/05 10:00:23;;;;;;;18.83;3.78;;;;;;;;;;4902523;28;100888;-85
2023/07/05 10:02:51;;;;;;;23.33;4.72;;;;;;;;;;4904967;28;98495;-84
2023/07/05 10:05:24;;;;;;;19.23;4.05;;;;;;;;;;4906057;28;99745;-84
2023/07/05 10:08:14;;;;;;;33.30;5.95;;;;;;;;;;4903418;28;100434;-84
2023/07/05 10:10:41;;;;;;;34.17;4.95;;;;;;;;;;4912547;28;98484;-84
2023/07/05 10:13:15;;;;;;;16.42;4.40;;;;;;;;;;4922172;28;98560;-84
2023/07/05 10:15:43;;;;;;;20.08;4.35;;;;;;;;;;4914782;28;99300;-85
2023/07/05 10:18:45;;;;;;;25.23;4.70;;;;;;;;;;4914585;28;98338;-85
2023/07/05 10:21:18;;;;;;;18.77;4.22;;;;;;;;;;4878219;28;98223;-85
2023/07/05 10:23:47;;;;;;;20.70;4.47;;;;;;;;;;4916715;28;99288;-85
2023/07/05 10:26:16;;;;;;;9.75;4.55;;;;;;;;;;4889936;28;102575;-84
2023/07/05 10:28:43;;;;;;;12.98;4.57;;;;;;;;;;4918466;28;98477;-85
2023/07/05 10:31:24;;;;;;;25.88;5.07;;;;;;;;;;4917266;28;98308;-83
2023/07/05 10:34:02;;;;;;;22.70;5.50;;;;;;;;;;4914140;28;98687;-84
2023/07/05 10:36:29;;;;;;;21.90;4.65;;;;;;;;;;4905701;28;100756;-82
2023/07/05 10:38:56;;;;;;;20.00;5.22;;;;;;;;;;4884601;28;99038;-84
2023/07/05 10:41:25;;;;;;;28.55;5.30;;;;;;;;;;4896547;28;100048;-83
2023/07/05 10:43:55;;;;;;;28.35;4.90;;;;;;;;;;4903859;28;98624;-84
2023/07/05 10:46:23;;;;;;;30.40;6.07;;;;;;;;;;4898946;28;100238;-84
2023/07/05 10:48:51;;;;;;;26.60;5.93;;;;;;;;;;4927428;28;102795;-84
2023/07/05 10:51:23;;;;;;;27.63;5.80;;;;;;;;;;4915527;28;98575;-85
2023/07/05 10:54:02;;;;;;;35.17;5.30;;;;;;;;;;4919082;28;102688;-82
2023/07/05 10:56:33;;;;;;;45.13;7.60;;;;;;;;;;4908784;28;99516;-83
2023/07/05 10:59:13;;;;;;;22.17;5.80;;;;;;;;;;4916320;28;99668;-82
2023/07/05 11:01:45;;;;;;;44.22;7.03;;;;;;;;;;4898133;28;100203;-83
2023/07/05 11:04:16;;;;;;;30.17;6.15;;;;;;;;;;4902258;28;98253;-82
2023/07/05 11:06:44;;;;;;;22.13;5.28;;;;;;;;;;4917014;28;98764;-83
2023/07/05 11:09:14;;;;;;;25.50;6.25;;;;;;;;;;4900227;28;101122;-84
2023/07/05 11:11:55;;;;;;;28.80;5.53;;;;;;;;;;4927379;28;98503;-82
2023/07/05 11:14:23;;;;;;;30.17;6.47;;;;;;;;;;4917245;28;100242;-83
2023/07/05 11:16:50;;;;;;;27.17;7.40;;;;;;;;;;4914599;28;99433;-84
2023/07/05 11:19:18;;;;;;;27.27;6.03;;;;;;;;;;4920316;28;98606;-84
2023/07/05 11:21:46;;;;;;;22.83;4.50;;;;;;;;;;4910518;28;98456;-84
2023/07/05 11:24:33;;;;;;;23.83;4.13;;;;;;;;;;4886779;28;101224;-84
2023/07/05 11:27:00;;;;;;;16.33;3.40;;;;;;;;;;4880216;28;98656;-84
2023/07/05 11:29:27;;;;;;;16.23;3.70;;;;;;;;;;4915643;28;102092;-84
2023/07/05 11:31:54;;;;;;;15.07;3.45;;;;;;;;;;4919174;28;97630;-84
2023/07/05 11:34:21;;;;;;;10.80;4.05;;;;;;;;;;4902811;28;98423;-83
2023/07/05 11:36:51;;;;;;;14.07;3.83;;;;;;;;;;4912152;28;99347;-82
2023/07/05 11:39:37;;;;;;;10.25;3.40;;;;;;;;;;4901238;28;99365;-83
2023/07/05 11:42:16;;;;;;;15.25;2.92;;;;;;;;;;4896591;28;100907;-83
2023/07/05 11:44:46;;;;;;;7.80;3.17;;;;;;;;;;4920412;28;98293;-83
2023/07/05 11:47:22;;;;;;;16.02;3.25;;;;;;;;;;4909431;28;98459;-83
2023/07/05 11:49:55;;;;;;;16.20;3.60;;;;;;;;;;4890988;28;100422;-83
2023/07/05 11:52:26;;;;;;;11.68;3.20;;;;;;;;;;4916023;28;99072;-84
2023/07/05 11:54:55;;;;;;;15.57;3.83;;;;;;;;;;4920516;28;99367;-85
2023/07/05 11:57:22;;;;;;;14.50;3.47;;;;;;;;;;4903852;28;99510;-84
2023/07/05 11:59:58;;;;;;;33.72;4.43;;;;;;;;;;4905068;28;98376;-84
2023/07/05 12:02:24;;;;;;;19.58;3.75;;;;;;;;;;4897625;28;98373;-84
2023/07/05 12:04:54;;;;;;;12.85;3.08;;;;;;;;;;4906736;28;98799;-84
2023/07/05 12:07:21;;;;;;;17.88;3.80;;;;;;;;;;4900126;28;98514;-84
2023/07/05 12:09:48;;;;;;;13.07;3.70;;;;;;;;;;4909552;28;100669;-84
2023/07/05 12:12:19;;;;;;;16.40;3.45;;;;;;;;;;4926403;28;98576;-83
2023/07/05 12:14:46;;;;;;;16.20;3.87;;;;;;;;;;4902517;28;99730;-84
2023/07/05 12:17:14;;;;;;;14.27;3.95;;;;;;;;;;4890475;28;100438;-85
2023/07/05 12:19:41;;;;;;;14.23;3.78;;;;;;;;;;4915596;28;98531;-83
2023/07/05 12:22:13;;;;;;;10.55;2.97;;;;;;;;;;4891033;28;99832;-83
2023/07/05 12:24:45;;;;;;;10.25;3.25;;;;;;;;;;4914590;28;99036;-84
2023/07/05 12:27:26;;;;;;;9.02;3.72;;;;;;;;;;4884968;28;98608;-84
2023/07/05 12:30:00;;;;;;;12.43;3.70;;;;;;;;;;4908058;28;99332;-84
2023/07/05 12:32:28;;;;;;;9.75;3.63;;;;;;;;;;4919134;28;99778;-84
2023/07/05 12:35:10;;;;;;;12.13;3.53;;;;;;;;;;4877383;28;99657;-84
2023/07/05 12:37:42;;;;;;;7.30;2.28;;;;;;;;;;4920439;28;98415;-84
2023/07/05 12:40:18;;;;;;;9.10;2.88;;;;;;;;;;4919354;28;98502;-84
2023/07/05 12:42:49;;;;;;;7.10;3.08;;;;;;;;;;4903874;28;101597;-83
2023/07/05 12:45:17;;;;;;;7.50;3.30;;;;;;;;;;4906179;28;101669;-84
2023/07/05 12:47:43;;;;;;;13.48;2.78;;;;;;;;;;4902283;28;97354;-84
2023/07/05 12:50:10;;;;;;;10.05;3.30;;;;;;;;;;4918085;28;98524;-84
2023/07/05 12:52:37;;;;;;;14.30;3.25;;;;;;;;;;4902980;28;100204;-84
2023/07/05 12:55:22;;;;;;;15.02;3.15;;;;;;;;;;4908512;28;98949;-84
2023/07/05 12:57:52;;;;;;;9.80;2.92;;;;;;;;;;4912012;28;98487;-83
2023/07/05 13:00:22;;;;;;;14.05;3.20;;;;;;;;;;4882230;28;98374;-84
2023/07/05 13:02:50;;;;;;;12.13;3.63;;;;;;;;;;4905400;28;100375;-84
2023/07/05 13:05:17;;;;;;;11.40;2.90;;;;;;;;;;4916654;28;99206;-85
2023/07/05 13:07:45;;;;;;;9.73;3.00;;;;;;;;;;4885938;28;99307;-84
2023/07/05 13:10:14;;;;;;;11.10;3.28;;;;;;;;;;4901420;28;98512;-83
2023/07/05 13:12:44;;;;;;;12.73;3.10;;;;;;;;;;4901760;28;97445;-83
2023/07/05 13:15:11;;;;;;;15.20;3.65;;;;;;;;;;4917714;28;98529;-83
2023/07/05 13:17:41;;;;;;;5.05;2.78;;;;;;;;;;4895335;28;100503;-83
2023/07/05 13:20:07;;;;;;;13.85;3.28;;;;;;;;;;4881209;28;99186;-84
2023/07/05 13:22:37;;;;;;;22.13;3.88;;;;;;;;;;4903382;28;100839;-83
2023/07/05 13:25:05;;;;;;;10.10;3.20;;;;;;;;;;4899425;28;99807;-83
2023/07/05 13:27:34;;;;;;;16.02;3.50;;;;;;;;;;4907852;28;98513;-83
2023/07/05 13:30:09;;;;;;;11.90;3.42;;;;;;;;;;4897594;28;98527;-85
2023/07/05 13:32:41;;;;;;;8.55;3.28;;;;;;;;;;4898437;28;99445;-83
2023/07/05 13:35:08;;;;;;;23.08;4.25;;;;;;;;;;4896158;28;98421;-84
2023/07/05 13:37:35;;;;;;;10.02;3.90;;;;;;;;;;4904885;28;97888;-84
2023/07/05 13:40:09;;;;;;;9.88;3.08;;;;;;;;;;4903462;28;100078;-84
2023/07/05 13:42:37;;;;;;;20.25;3.85;;;;;;;;;;4896247;28;98099;-85
2023/07/05 13:45:09;;;;;;;7.78;3.45;;;;;;;;;;4899878;28;99412;-84
2023/07/05 13:47:40;;;;;;;13.02;4.75;;;;;;;;;;4910629;28;98432;-84
2023/07/05 13:50:07;;;;;;;10.95;3.70;;;;;;;;;;4893960;28;100818;-85
2023/07/05 13:52:34;;;;;;;9.05;2.60;;;;;;;;;;4917618;28;98255;-85
2023/07/05 13:55:01;;;;;;;9.77;2.22;;;;;;;;;;4883654;28;98613;-84
2023/07/05 13:57:28;;;;;;;7.88;2.13;;;;;;;;;;4902210;28;99026;-84
2023/07/05 13:59:55;;;;;;;8.93;2.00;;;;;;;;;;4900825;28;98078;-84
2023/07/05 14:02:24;;;;;;;6.22;2.42;;;;;;;;;;4904730;28;97632;-85
2023/07/05 14:04:54;;;;;;;9.55;2.20;;;;;;;;;;4901261;28;100169;-85
2023/07/05 14:07:21;;;;;;;3.78;1.77;;;;;;;;;;4901782;28;98666;-85
2023/07/05 14:09:48;;;;;;;17.10;2.42;;;;;;;;;;4901039;28;100829;-84
2023/07/05 14:12:15;;;;;;;5.35;2.10;;;;;;;;;;4896697;28;100373;-85
2023/07/05 14:14:42;;;;;;;7.22;1.70;;;;;;;;;;4915296;28;98346;-84
2023/07/05 14:17:13;;;;;;;5.03;1.80;;;;;;;;;;4915902;28;98643;-85
2023/07/05 14:19:41;;;;;;;4.50;1.67;;;;;;;;;;4916924;28;100311;-85
2023/07/05 14:22:16;;;;;;;6.25;1.95;;;;;;;;;;4920116;28;98522;-85
2023/07/05 14:24:46;;;;;;;11.35;2.17;;;;;;;;;;4881650;28;101583;-84
2023/07/05 14:27:16;;;;;;;7.30;2.15;;;;;;;;;;4890283;28;97449;-84
2023/07/05 14:29:44;;;;;;;8.20;2.25;;;;;;;;;;4912346;28;101028;-84
2023/07/05 14:32:14;;;;;;;8.02;2.10;;;;;;;;;;4889663;28;100903;-84
2023/07/05 14:34:41;;;;;;;8.30;2.60;;;;;;;;;;4881208;28;99860;-84
2023/07/05 14:37:08;;;;;;;7.10;1.77;;;;;;;;;;4895313;28;99585;-84
2023/07/05 14:39:34;;;;;;;8.13;2.08;;;;;;;;;;4916689;28;99632;-84
2023/07/05 14:42:01;;;;;;;10.73;1.90;;;;;;;;;;4888637;28;98547;-85